Kezdőlap
METAR-TAF:

METAR-TAF

Repülőterek :

Tarakan, Indonézia

földrajzi szélesség: 03-19-36N, földrajzi hosszúság: 117-33-56E, magasság: 6 m

Jelenlegi meteorológiai megfigyelések

A jelentés 1 órával és 8 perccel ezelõtt készült, 13:00 UTC
Észak-északnyugati szél 5 kt
Hőmérséklet 24°C
Páratartalom 94%
Légköri nyomás 1011 hPa
Látótávolság: 6000 m
Szakadozott felhőzet 1500 lábon
Szórványos felhőzet 10000 lábon
enyhe esõ,

METAR: WAQQ 231300Z 33005KT 6000 -RA BKN015 SCT100 24/23 Q1011

Idő: 21:08 (14:08 UTC)

Előrejelzés

A jelentés 3 órával és 8 perccel ezelõtt készült, 11:00 UTC
Az előrejelzés 23-én 12 óra UTC és 23-én 24 óra UTC között érvényes
Déli szél 3 kt
Látótávolság 10 km, vagy több
Szórványos felhőzet 1500 lábon

TAF: WAQQ 231100Z 2312/2324 18003KT 9999 SCT015

Meteorológiai megfigyelések és előrejelzések több, mint 4000 repülőtéren (METAR és TAF jelentéseket).

A térképen piros és sárga pontok jelzik az elérhető meteorológiai állomásokat.

Mozgassa az egeret a pont fölött, hogy megjelenjen az állomás neve.

Azután kattintson az időjárási megfigyelések és előrejelzések megtekintéséhez.

A térkép megváltoztatása: kattintson a fekete keresztel jelölt zöld gombra ráközelítéshez, a vonallal jelölt zöld gombra távolításhoz, vagy a zöld nyilakra a szomszédos térképek eléréséhez.


METAR-TAF: